Time;durP1;ratioP1;P1;durP2;ratioP2;P2;SDS_P1;SDS_P2;PMS_P1;PMS_P2;Temp;Humidity;BMP_temperature;BMP_pressure;BME280_temperature;BME280_humidity;BME280_pressure;Samples;Min_cycle;Max_cycle;Signal;HPM_P1;HPM_P2
2021/05/21 00:01:06;;;;;;;0.85;0.80;;;13.10;99.90;;;;;;5001617;28;20183;-78
2021/05/21 00:03:31;;;;;;;0.88;0.85;;;13.20;99.90;;;;;;5008039;28;20186;-78
2021/05/21 00:05:57;;;;;;;1.10;1.00;;;13.20;99.90;;;;;;5002019;28;20242;-77
2021/05/21 00:08:23;;;;;;;1.20;0.85;;;13.10;99.90;;;;;;5002852;28;20713;-78
2021/05/21 00:10:48;;;;;;;0.82;0.82;;;13.10;99.90;;;;;;4999663;28;20190;-79
2021/05/21 00:13:14;;;;;;;0.90;0.90;;;13.10;99.90;;;;;;4996847;28;20286;-78
2021/05/21 00:15:39;;;;;;;0.50;0.50;;;13.00;99.90;;;;;;5010360;28;20191;-78
2021/05/21 00:18:05;;;;;;;0.80;0.50;;;13.10;99.90;;;;;;4997637;28;20236;-78
2021/05/21 00:20:31;;;;;;;1.02;1.00;;;13.00;99.90;;;;;;4997980;28;20207;-78
2021/05/21 00:22:56;;;;;;;0.80;0.77;;;12.90;99.90;;;;;;5002438;28;20189;-78
2021/05/21 00:25:22;;;;;;;0.80;0.70;;;12.70;99.90;;;;;;5009650;28;20191;-78
2021/05/21 00:27:47;;;;;;;0.90;0.90;;;12.60;99.90;;;;;;4999855;28;20224;-78
2021/05/21 00:30:13;;;;;;;0.85;0.70;;;12.50;99.90;;;;;;5001937;28;20950;-78
2021/05/21 00:32:39;;;;;;;0.70;0.70;;;12.40;99.90;;;;;;4998488;28;20657;-78
2021/05/21 00:35:05;;;;;;;1.20;0.93;;;12.30;99.90;;;;;;4999443;28;21082;-78
2021/05/21 00:37:31;;;;;;;0.68;0.68;;;12.20;99.90;;;;;;4999399;28;20200;-78
2021/05/21 00:39:56;;;;;;;0.75;0.75;;;12.20;99.90;;;;;;5000446;28;20179;-78
2021/05/21 00:42:22;;;;;;;1.27;0.70;;;12.20;99.90;;;;;;5008581;28;20249;-77
2021/05/21 00:44:58;;;;;;;0.80;0.80;;;12.20;99.90;;;;;;4994921;28;20650;-78
2021/05/21 00:47:24;;;;;;;0.80;0.80;;;12.20;99.90;;;;;;5001397;28;20226;-76
2021/05/21 00:49:50;;;;;;;1.10;1.00;;;12.20;99.90;;;;;;4998015;28;20218;-78
2021/05/21 00:52:17;;;;;;;1.58;0.80;;;12.20;99.90;;;;;;5000115;28;20207;-78
2021/05/21 00:54:47;;;;;;;1.15;0.95;;;12.10;99.90;;;;;;5005258;28;20230;-78
2021/05/21 00:57:13;;;;;;;1.20;0.82;;;12.20;99.90;;;;;;5009918;28;20628;-78
2021/05/21 00:59:39;;;;;;;1.48;1.02;;;12.10;99.90;;;;;;5000560;28;20180;-78
2021/05/21 01:02:07;;;;;;;0.75;0.75;;;12.20;99.90;;;;;;5001835;28;20299;-78
2021/05/21 01:04:34;;;;;;;1.15;0.80;;;12.20;99.90;;;;;;5005003;28;20211;-77
2021/05/21 01:07:01;;;;;;;0.82;0.82;;;12.20;99.90;;;;;;5000015;28;20243;-78
2021/05/21 01:09:26;;;;;;;1.00;0.80;;;12.10;99.90;;;;;;5007931;28;20661;-79
2021/05/21 01:11:52;;;;;;;1.00;0.90;;;12.10;99.90;;;;;;5000002;28;20188;-78
2021/05/21 01:14:23;;;;;;;0.73;0.65;;;12.10;99.90;;;;;;5000230;28;20203;-76
2021/05/21 01:16:49;;;;;;;1.55;0.98;;;12.10;99.90;;;;;;5002496;28;20223;-77
2021/05/21 01:19:15;;;;;;;1.00;1.00;;;12.20;99.90;;;;;;5004505;28;20226;-77
2021/05/21 01:21:41;;;;;;;0.75;0.75;;;12.20;99.90;;;;;;4997164;28;20192;-78
2021/05/21 01:24:08;;;;;;;2.40;1.05;;;12.20;99.90;;;;;;5009021;28;20210;-78
2021/05/21 01:26:35;;;;;;;2.15;0.88;;;12.30;99.90;;;;;;5002739;28;20294;-78
2021/05/21 01:29:01;;;;;;;0.70;0.70;;;12.30;99.90;;;;;;5000107;28;20176;-78
2021/05/21 01:31:28;;;;;;;0.80;0.80;;;12.30;99.90;;;;;;5002788;28;20183;-78
2021/05/21 01:33:54;;;;;;;2.38;0.90;;;12.30;99.90;;;;;;4997005;28;20180;-78
2021/05/21 01:36:20;;;;;;;1.00;0.90;;;12.40;99.90;;;;;;5009802;28;20187;-78
2021/05/21 01:39:10;;;;;;;0.95;0.85;;;12.50;99.90;;;;;;5003545;28;20200;-78
2021/05/21 01:41:36;;;;;;;1.10;0.98;;;12.50;99.90;;;;;;5000727;28;20180;-78
2021/05/21 01:44:04;;;;;;;0.85;0.85;;;12.50;99.90;;;;;;5005312;28;20469;-78
2021/05/21 01:46:30;;;;;;;0.93;0.80;;;12.50;99.90;;;;;;4999983;28;20314;-78
2021/05/21 01:48:55;;;;;;;1.10;0.80;;;12.50;99.90;;;;;;5003447;28;20222;-78
2021/05/21 01:51:21;;;;;;;1.10;0.85;;;12.60;99.90;;;;;;5001689;28;20660;-78
2021/05/21 01:53:47;;;;;;;0.70;0.70;;;12.70;99.90;;;;;;4999726;28;20184;-78
2021/05/21 01:56:12;;;;;;;0.70;0.70;;;12.70;99.90;;;;;;4999115;28;20180;-78
2021/05/21 01:58:38;;;;;;;0.60;0.60;;;12.70;99.90;;;;;;5002243;28;20310;-78
2021/05/21 02:01:04;;;;;;;0.77;0.77;;;12.70;99.90;;;;;;4999692;28;20184;-78
2021/05/21 02:03:31;;;;;;;0.60;0.60;;;12.70;99.90;;;;;;5004643;28;20176;-78
2021/05/21 02:05:57;;;;;;;2.63;0.85;;;12.70;99.90;;;;;;5004419;28;20183;-78
2021/05/21 02:08:27;;;;;;;0.70;0.60;;;12.60;99.90;;;;;;5006545;28;20242;-78
2021/05/21 02:10:54;;;;;;;0.52;0.52;;;12.60;99.90;;;;;;4999711;28;20181;-78
2021/05/21 02:13:20;;;;;;;0.60;0.60;;;12.60;99.90;;;;;;4999703;28;20387;-78
2021/05/21 02:15:46;;;;;;;0.80;0.80;;;12.50;99.90;;;;;;5000316;28;20177;-79
2021/05/21 02:18:12;;;;;;;0.70;0.70;;;12.50;99.90;;;;;;4999112;28;20697;-76
2021/05/21 02:20:38;;;;;;;1.25;0.57;;;12.30;99.90;;;;;;4997663;28;20267;-79
2021/05/21 02:23:05;;;;;;;0.77;0.65;;;12.30;99.90;;;;;;5000002;28;20225;-77
2021/05/21 02:25:31;;;;;;;0.98;0.70;;;12.20;99.90;;;;;;4998280;28;20191;-79
2021/05/21 02:27:57;;;;;;;0.77;0.70;;;12.20;99.90;;;;;;4997680;28;20289;-79
2021/05/21 02:30:23;;;;;;;0.93;0.77;;;12.20;99.90;;;;;;5000919;28;20921;-79
2021/05/21 02:32:48;;;;;;;0.70;0.70;;;12.10;99.90;;;;;;4996262;28;20187;-78
2021/05/21 02:35:15;;;;;;;0.77;0.77;;;12.10;99.90;;;;;;4997171;28;20440;-78
2021/05/21 02:37:41;;;;;;;1.13;0.95;;;12.10;99.90;;;;;;5000772;28;20200;-77
2021/05/21 02:40:07;;;;;;;0.57;0.57;;;12.00;99.90;;;;;;4998276;28;20254;-77
2021/05/21 02:42:33;;;;;;;1.52;0.90;;;12.00;99.90;;;;;;4997769;28;20191;-76
2021/05/21 02:44:59;;;;;;;0.80;0.80;;;11.90;99.90;;;;;;4994612;28;20185;-77
2021/05/21 02:47:24;;;;;;;0.80;0.80;;;11.80;99.90;;;;;;4996680;28;20219;-79
2021/05/21 02:49:50;;;;;;;0.75;0.75;;;11.70;99.90;;;;;;4992404;28;20184;-78
2021/05/21 02:52:17;;;;;;;0.60;0.60;;;11.60;99.90;;;;;;4988979;28;20188;-77
2021/05/21 02:54:42;;;;;;;0.63;0.60;;;11.60;99.90;;;;;;4994255;28;20233;-76
2021/05/21 02:57:08;;;;;;;0.50;0.50;;;11.40;99.90;;;;;;4996222;28;20196;-79
2021/05/21 02:59:34;;;;;;;0.80;0.70;;;11.30;99.90;;;;;;4991922;28;20333;-77
2021/05/21 03:01:59;;;;;;;1.10;0.80;;;11.20;99.90;;;;;;4997414;28;20279;-76
2021/05/21 03:04:25;;;;;;;0.93;0.77;;;11.10;99.90;;;;;;4999636;28;20191;-79
2021/05/21 03:06:50;;;;;;;0.50;0.50;;;11.10;99.90;;;;;;4994159;28;22856;-78
2021/05/21 03:09:16;;;;;;;0.73;0.73;;;11.00;99.90;;;;;;4996863;28;20180;-77
2021/05/21 03:11:42;;;;;;;0.60;0.60;;;11.00;99.90;;;;;;4998761;28;20649;-78
2021/05/21 03:14:08;;;;;;;1.37;1.00;;;11.00;99.90;;;;;;4997792;28;20584;-79
2021/05/21 03:16:33;;;;;;;0.70;0.70;;;10.90;99.90;;;;;;4999886;28;20195;-79
2021/05/21 03:18:59;;;;;;;0.50;0.50;;;10.90;99.90;;;;;;4995073;28;20192;-79
2021/05/21 03:21:25;;;;;;;1.00;0.80;;;10.90;99.90;;;;;;4996170;28;20199;-78
2021/05/21 03:23:50;;;;;;;1.00;0.77;;;11.00;99.90;;;;;;4997614;28;20216;-79
2021/05/21 03:26:16;;;;;;;1.23;0.80;;;11.00;99.90;;;;;;4993496;28;20207;-78
2021/05/21 03:28:41;;;;;;;0.63;0.63;;;11.10;99.90;;;;;;5004665;28;20220;-78
2021/05/21 03:31:08;;;;;;;0.60;0.60;;;11.20;99.90;;;;;;5001954;28;20176;-78
2021/05/21 03:33:34;;;;;;;0.63;0.63;;;11.20;99.90;;;;;;5001634;28;20184;-78
2021/05/21 03:35:59;;;;;;;0.50;0.50;;;11.20;99.90;;;;;;5002247;28;20646;-74
2021/05/21 03:38:27;;;;;;;0.67;0.67;;;11.20;99.90;;;;;;5000083;28;20207;-79
2021/05/21 03:40:53;;;;;;;0.60;0.60;;;11.20;99.90;;;;;;4996745;28;20260;-77
2021/05/21 03:43:18;;;;;;;0.67;0.67;;;11.20;99.90;;;;;;4999758;28;20950;-77
2021/05/21 03:45:44;;;;;;;0.70;0.70;;;11.30;99.90;;;;;;4989480;28;20183;-79
2021/05/21 03:48:12;;;;;;;0.70;0.70;;;11.40;99.90;;;;;;5000050;28;20246;-78
2021/05/21 03:50:38;;;;;;;1.70;1.00;;;11.40;99.90;;;;;;5002292;28;20184;-77
2021/05/21 03:53:03;;;;;;;0.80;0.80;;;11.40;99.90;;;;;;5003360;28;20498;-79
2021/05/21 03:55:29;;;;;;;0.97;0.80;;;11.40;99.90;;;;;;5000151;28;20230;-79
2021/05/21 03:57:55;;;;;;;1.23;1.13;;;11.30;99.90;;;;;;5000037;28;20204;-78
2021/05/21 04:00:21;;;;;;;0.90;0.90;;;11.30;99.90;;;;;;5007280;28;20191;-78
2021/05/21 04:02:51;;;;;;;0.83;0.83;;;11.30;99.90;;;;;;5000989;28;20243;-78
2021/05/21 04:05:21;;;;;;;0.73;0.73;;;11.20;99.90;;;;;;5003535;28;20198;-78
2021/05/21 04:07:47;;;;;;;0.80;0.80;;;11.20;99.90;;;;;;5006513;28;20567;-78
2021/05/21 04:10:13;;;;;;;0.70;0.70;;;11.20;99.90;;;;;;4996822;28;20440;-78
2021/05/21 04:12:39;;;;;;;1.23;0.90;;;11.20;99.90;;;;;;5007251;28;20321;-78
2021/05/21 04:15:06;;;;;;;0.97;0.90;;;11.30;99.90;;;;;;5010686;28;20474;-79
2021/05/21 04:17:32;;;;;;;0.80;0.80;;;11.30;99.90;;;;;;5002676;28;20227;-76
2021/05/21 04:19:57;;;;;;;0.80;0.80;;;11.50;99.90;;;;;;5002398;28;20184;-79
2021/05/21 04:22:23;;;;;;;1.10;0.88;;;11.50;99.90;;;;;;5003430;28;21019;-79
2021/05/21 04:24:49;;;;;;;0.98;0.90;;;11.50;99.90;;;;;;5007886;28;20192;-78
2021/05/21 04:27:14;;;;;;;0.70;0.70;;;11.40;99.90;;;;;;5001078;28;20223;-77
2021/05/21 04:29:40;;;;;;;0.80;0.80;;;11.60;99.90;;;;;;5005513;28;20180;-78
2021/05/21 04:32:06;;;;;;;0.70;0.70;;;12.20;99.90;;;;;;5002245;28;20709;-79
2021/05/21 04:34:33;;;;;;;0.90;0.90;;;13.60;99.90;;;;;;5004819;28;20271;-79
2021/05/21 04:36:58;;;;;;;0.75;0.75;;;15.20;99.90;;;;;;5001573;28;20196;-79
2021/05/21 04:39:25;;;;;;;2.15;0.73;;;16.30;99.90;;;;;;5000759;28;20738;-79
2021/05/21 04:41:51;;;;;;;0.70;0.70;;;17.10;99.90;;;;;;5003308;28;20260;-78
2021/05/21 04:44:16;;;;;;;1.98;0.60;;;17.40;99.90;;;;;;5000416;28;20200;-78
2021/05/21 04:46:42;;;;;;;0.98;0.90;;;17.60;99.90;;;;;;5007082;28;20206;-79
2021/05/21 04:49:07;;;;;;;0.65;0.65;;;17.50;99.90;;;;;;5007332;28;20196;-78
2021/05/21 04:51:33;;;;;;;0.75;0.75;;;17.20;99.90;;;;;;5008627;28;20463;-78
2021/05/21 04:54:02;;;;;;;0.98;0.60;;;16.90;99.90;;;;;;5003155;28;20187;-76
2021/05/21 04:56:27;;;;;;;0.98;0.75;;;16.60;99.90;;;;;;5004418;28;20581;-76
2021/05/21 04:58:53;;;;;;;0.57;0.57;;;16.10;99.90;;;;;;5000802;28;20226;-78
2021/05/21 05:01:18;;;;;;;0.85;0.55;;;15.60;99.90;;;;;;5004584;28;20917;-77
2021/05/21 05:03:44;;;;;;;0.73;0.50;;;14.90;99.90;;;;;;4993819;28;20192;-78
2021/05/21 05:06:11;;;;;;;0.40;0.40;;;14.50;99.90;;;;;;5004566;28;20251;-75
2021/05/21 05:08:37;;;;;;;0.82;0.80;;;14.30;99.90;;;;;;4998042;28;20192;-78
2021/05/21 05:11:02;;;;;;;0.93;0.75;;;14.10;99.90;;;;;;4997489;28;20222;-77
2021/05/21 05:13:28;;;;;;;0.65;0.65;;;14.00;99.90;;;;;;5001598;28;20560;-79
2021/05/21 05:15:54;;;;;;;0.60;0.60;;;14.00;99.90;;;;;;4995093;28;20200;-78
2021/05/21 05:18:19;;;;;;;0.60;0.60;;;14.10;99.90;;;;;;5002383;28;20227;-78
2021/05/21 05:20:46;;;;;;;0.57;0.57;;;14.10;99.90;;;;;;5004690;28;20184;-78
2021/05/21 05:23:12;;;;;;;0.55;0.50;;;14.10;99.90;;;;;;5008821;28;20725;-76
2021/05/21 05:25:44;;;;;;;0.50;0.50;;;14.10;99.90;;;;;;5001581;28;20763;-79
2021/05/21 05:28:12;;;;;;;1.05;0.80;;;14.10;99.90;;;;;;4999576;28;20216;-78
2021/05/21 05:30:39;;;;;;;0.73;0.60;;;14.30;99.90;;;;;;5000243;28;20187;-78
2021/05/21 05:33:04;;;;;;;0.57;0.55;;;14.50;99.90;;;;;;4999780;28;20246;-80
2021/05/21 05:35:30;;;;;;;0.90;0.70;;;14.60;99.90;;;;;;5004156;28;20273;-79
2021/05/21 05:37:55;;;;;;;0.40;0.40;;;15.00;99.90;;;;;;5002760;28;20210;-79
2021/05/21 05:40:21;;;;;;;0.40;0.40;;;15.20;99.90;;;;;;5001114;28;20241;-78
2021/05/21 05:42:46;;;;;;;0.60;0.50;;;15.50;99.90;;;;;;4998349;28;20250;-79
2021/05/21 05:45:13;;;;;;;1.35;0.57;;;15.80;99.90;;;;;;4994333;28;20184;-76
2021/05/21 05:47:38;;;;;;;0.60;0.50;;;16.20;99.90;;;;;;4993692;28;20817;-79
2021/05/21 05:50:05;;;;;;;0.40;0.40;;;16.80;99.90;;;;;;4998876;28;20279;-76
2021/05/21 05:52:30;;;;;;;0.55;0.50;;;17.30;99.90;;;;;;5002313;28;20538;-79
2021/05/21 05:54:56;;;;;;;0.30;0.30;;;18.00;99.90;;;;;;4997969;28;20191;-78
2021/05/21 05:57:22;;;;;;;0.30;0.30;;;18.60;99.90;;;;;;4993451;28;20205;-79
2021/05/21 05:59:48;;;;;;;0.50;0.32;;;19.10;99.90;;;;;;4995725;28;20214;-79
2021/05/21 06:02:13;;;;;;;0.30;0.30;;;20.10;99.90;;;;;;4998793;28;20184;-77
2021/05/21 06:04:40;;;;;;;0.40;0.40;;;20.50;99.90;;;;;;5001868;28;20549;-80
2021/05/21 06:07:05;;;;;;;1.05;0.40;;;20.90;99.90;;;;;;4997959;28;20219;-79
2021/05/21 06:09:31;;;;;;;0.40;0.40;;;21.30;99.90;;;;;;4998416;28;20191;-78
2021/05/21 06:11:57;;;;;;;0.50;0.40;;;21.00;99.90;;;;;;4992642;28;20199;-77
2021/05/21 06:14:23;;;;;;;1.58;0.75;;;20.70;99.70;;;;;;4996566;28;20215;-76
2021/05/21 06:16:49;;;;;;;0.45;0.45;;;20.20;99.90;;;;;;4991519;28;20569;-76
2021/05/21 06:19:15;;;;;;;0.63;0.40;;;20.30;99.90;;;;;;5000670;28;20244;-78
2021/05/21 06:21:40;;;;;;;0.40;0.40;;;19.80;99.90;;;;;;5000258;28;20192;-78
2021/05/21 06:24:06;;;;;;;0.50;0.47;;;19.40;99.90;;;;;;4997683;28;20283;-77
2021/05/21 06:26:36;;;;;;;0.30;0.30;;;19.40;99.90;;;;;;4995591;28;20662;-77
2021/05/21 06:29:02;;;;;;;0.30;0.30;;;19.60;99.90;;;;;;4995539;28;20222;-78
2021/05/21 06:31:28;;;;;;;1.05;0.45;;;20.00;99.90;;;;;;4987336;28;20613;-77
2021/05/21 06:33:54;;;;;;;0.43;0.40;;;20.30;99.60;;;;;;4989616;28;20184;-77
2021/05/21 06:36:19;;;;;;;0.40;0.40;;;20.50;99.50;;;;;;4996320;28;20262;-77
2021/05/21 06:38:45;;;;;;;0.50;0.50;;;20.00;99.90;;;;;;4995427;28;20199;-77
2021/05/21 06:41:11;;;;;;;0.40;0.40;;;19.80;99.90;;;;;;4993427;28;20192;-78
2021/05/21 06:43:37;;;;;;;0.88;0.22;;;19.80;99.90;;;;;;4994536;28;20192;-78
2021/05/21 06:46:04;;;;;;;0.57;0.38;;;19.40;99.90;;;;;;5000487;28;20179;-77
2021/05/21 06:48:31;;;;;;;0.22;0.22;;;19.50;99.90;;;;;;4997194;28;20587;-78
2021/05/21 06:51:01;;;;;;;0.40;0.40;;;19.60;99.90;;;;;;5000794;28;20177;-78
2021/05/21 06:53:27;;;;;;;0.95;0.40;;;19.50;99.90;;;;;;4998980;28;20219;-78
2021/05/21 06:55:53;;;;;;;0.38;0.30;;;19.00;99.90;;;;;;4998513;28;20199;-80
2021/05/21 06:58:19;;;;;;;0.40;0.40;;;19.20;99.90;;;;;;4995722;28;20212;-79
2021/05/21 07:00:49;;;;;;;0.80;0.30;;;19.00;99.90;;;;;;5000195;28;20181;-79
2021/05/21 07:03:15;;;;;;;0.40;0.40;;;19.20;99.90;;;;;;4997838;28;20188;-78
2021/05/21 07:05:43;;;;;;;0.30;0.30;;;19.50;99.90;;;;;;5009435;28;20180;-78
2021/05/21 07:08:11;;;;;;;0.40;0.30;;;19.40;99.90;;;;;;4996926;28;20294;-77
2021/05/21 07:10:38;;;;;;;1.13;0.38;;;19.40;99.90;;;;;;5007785;28;20183;-79
2021/05/21 07:13:11;;;;;;;0.28;0.20;;;19.50;99.90;;;;;;5001265;28;20226;-79
2021/05/21 07:15:37;;;;;;;0.30;0.30;;;19.30;99.90;;;;;;4995632;28;20180;-78
2021/05/21 07:18:47;;;;;;;0.22;0.22;;;18.90;99.90;;;;;;4994415;28;20790;-79
2021/05/21 07:21:12;;;;;;;0.40;0.40;;;18.20;99.90;;;;;;5013725;28;20265;-79
2021/05/21 07:23:38;;;;;;;4.32;0.95;;;18.20;99.90;;;;;;4988314;28;20659;-78
2021/05/21 07:26:03;;;;;;;0.93;0.40;;;18.50;99.90;;;;;;5002294;28;20259;-79
2021/05/21 07:28:29;;;;;;;1.80;0.70;;;18.70;99.90;;;;;;4995942;28;20274;-77
2021/05/21 07:30:55;;;;;;;0.77;0.60;;;18.50;99.90;;;;;;5002339;28;20211;-79
2021/05/21 07:33:20;;;;;;;0.40;0.40;;;18.20;99.90;;;;;;4990760;28;20579;-77
2021/05/21 07:35:46;;;;;;;0.52;0.40;;;18.10;99.90;;;;;;4994181;28;20728;-80
2021/05/21 07:38:12;;;;;;;0.30;0.30;;;18.00;99.90;;;;;;5001052;28;20203;-79
2021/05/21 07:40:37;;;;;;;0.32;0.32;;;17.70;99.90;;;;;;5000234;28;20196;-78
2021/05/21 07:43:03;;;;;;;0.20;0.20;;;17.70;99.90;;;;;;4995231;28;20191;-79
2021/05/21 07:45:29;;;;;;;0.65;0.20;;;17.70;99.90;;;;;;5001856;28;20548;-79
2021/05/21 07:47:54;;;;;;;0.28;0.28;;;17.50;99.90;;;;;;4996046;28;20705;-79
2021/05/21 07:50:20;;;;;;;0.40;0.20;;;17.50;99.90;;;;;;4997142;28;20184;-77
2021/05/21 07:52:46;;;;;;;0.73;0.35;;;17.50;99.90;;;;;;5012259;28;20179;-76
2021/05/21 07:55:12;;;;;;;0.30;0.30;;;17.50;99.90;;;;;;5013716;28;20175;-76
2021/05/21 07:57:38;;;;;;;0.60;0.60;;;17.40;99.90;;;;;;5022181;28;20207;-76
2021/05/21 08:00:05;;;;;;;0.38;0.25;;;17.60;99.90;;;;;;5010585;28;20180;-75
2021/05/21 08:02:31;;;;;;;0.85;0.30;;;17.40;99.90;;;;;;5008332;28;20172;-77
2021/05/21 08:04:56;;;;;;;0.60;0.60;;;17.40;99.90;;;;;;5013268;28;20263;-77
2021/05/21 08:07:22;;;;;;;0.30;0.28;;;17.70;99.90;;;;;;5012845;28;20211;-77
2021/05/21 08:09:50;;;;;;;1.65;0.60;;;18.00;99.90;;;;;;5007593;28;20213;-76
2021/05/21 08:12:16;;;;;;;0.52;0.45;;;18.10;99.90;;;;;;5012313;28;20460;-76
2021/05/21 08:14:44;;;;;;;1.75;0.65;;;17.90;99.90;;;;;;5018685;28;20724;-76
2021/05/21 08:17:10;;;;;;;0.32;0.32;;;17.40;99.90;;;;;;5010804;28;20212;-76
2021/05/21 08:19:37;;;;;;;0.82;0.40;;;17.30;99.90;;;;;;5014629;28;20183;-78
2021/05/21 08:22:03;;;;;;;3.83;1.05;;;17.60;99.90;;;;;;5007200;28;20200;-78
2021/05/21 08:24:29;;;;;;;0.90;0.40;;;18.20;99.90;;;;;;5003020;28;20541;-79
2021/05/21 08:26:54;;;;;;;0.30;0.30;;;18.60;99.30;;;;;;5004151;28;20244;-79
2021/05/21 08:29:20;;;;;;;0.75;0.50;;;18.90;99.80;;;;;;5003217;28;20190;-80
2021/05/21 08:31:46;;;;;;;2.92;1.88;;;19.00;99.40;;;;;;5004791;28;20222;-78
2021/05/21 08:34:11;;;;;;;1.92;0.82;;;18.70;99.60;;;;;;5003669;28;20243;-79
2021/05/21 08:36:37;;;;;;;3.30;1.80;;;18.60;99.90;;;;;;4999061;28;20464;-80
2021/05/21 08:39:03;;;;;;;1.08;0.68;;;18.30;99.90;;;;;;4995557;28;20176;-79
2021/05/21 08:41:30;;;;;;;0.60;0.60;;;18.40;99.90;;;;;;5000616;28;20435;-78
2021/05/21 08:43:56;;;;;;;0.60;0.50;;;18.70;99.90;;;;;;5003309;28;20175;-78
2021/05/21 08:46:26;;;;;;;1.35;0.88;;;18.70;99.90;;;;;;5001280;28;20188;-78
2021/05/21 08:48:57;;;;;;;2.75;1.45;;;18.50;99.90;;;;;;5005275;28;20263;-79
2021/05/21 08:51:23;;;;;;;3.70;1.00;;;18.80;99.50;;;;;;5000192;28;20180;-79
2021/05/21 08:53:49;;;;;;;0.45;0.40;;;19.10;99.70;;;;;;5009223;28;20196;-77
2021/05/21 08:56:15;;;;;;;0.77;0.60;;;19.40;99.20;;;;;;5016025;28;20184;-76
2021/05/21 08:58:43;;;;;;;0.82;0.60;;;19.50;99.50;;;;;;5018206;28;20246;-75
2021/05/21 09:01:09;;;;;;;1.17;0.88;;;19.30;98.00;;;;;;5020975;28;20183;-76
2021/05/21 09:03:34;;;;;;;3.90;1.48;;;19.00;99.10;;;;;;5023176;28;20263;-77
2021/05/21 09:06:13;;;;;;;1.10;0.93;;;18.90;98.60;;;;;;5025522;28;20246;-75
2021/05/21 09:08:59;;;;;;;2.20;1.10;;;18.80;99.70;;;;;;5018710;28;20219;-77
2021/05/21 09:11:35;;;;;;;0.95;0.50;;;19.00;97.80;;;;;;5018495;28;20201;-75
2021/05/21 09:14:18;;;;;;;1.15;0.50;;;19.20;97.90;;;;;;5016572;28;20203;-77
2021/05/21 09:16:45;;;;;;;2.58;0.65;;;19.20;96.60;;;;;;4994777;28;20611;-77
2021/05/21 09:19:16;;;;;;;0.55;0.40;;;19.70;97.10;;;;;;5002677;28;20180;-79
2021/05/21 09:22:08;;;;;;;1.38;0.50;;;20.20;95.90;;;;;;5000582;28;20184;-78
2021/05/21 09:24:40;;;;;;;2.47;0.60;;;20.00;93.80;;;;;;5002195;28;20738;-78
2021/05/21 09:27:06;;;;;;;0.63;0.32;;;20.20;95.80;;;;;;4995074;28;20219;-80
2021/05/21 09:29:40;;;;;;;1.42;0.40;;;20.50;94.50;;;;;;5003730;28;20192;-77
2021/05/21 09:32:29;;;;;;;2.30;0.30;;;20.50;94.40;;;;;;4999855;28;20238;-76
2021/05/21 09:35:02;;;;;;;1.75;0.60;;;20.60;93.80;;;;;;5001080;28;20176;-78
2021/05/21 09:37:28;;;;;;;0.65;0.30;;;20.80;91.90;;;;;;4997049;28;20200;-78
2021/05/21 09:40:21;;;;;;;4.40;0.40;;;20.40;91.30;;;;;;5004213;28;20195;-79
2021/05/21 09:43:05;;;;;;;0.22;0.22;;;20.20;93.10;;;;;;4997405;28;20353;-79
2021/05/21 09:45:40;;;;;;;0.22;0.22;;;20.50;93.30;;;;;;5001917;28;20207;-78
2021/05/21 09:48:08;;;;;;;0.73;0.70;;;20.60;93.30;;;;;;5001984;28;20340;-79
2021/05/21 09:50:41;;;;;;;0.85;0.40;;;20.70;91.60;;;;;;5000618;28;20184;-80
2021/05/21 09:53:11;;;;;;;0.40;0.30;;;20.30;90.90;;;;;;5003104;28;20235;-79
2021/05/21 09:55:45;;;;;;;0.40;0.30;;;20.20;91.90;;;;;;5001075;28;20593;-79
2021/05/21 09:58:30;;;;;;;0.90;0.40;;;20.10;92.70;;;;;;4995239;28;20979;-79
2021/05/21 10:01:10;;;;;;;0.52;0.22;;;20.20;92.20;;;;;;5017751;28;20196;-80
2021/05/21 10:03:37;;;;;;;0.45;0.30;;;20.70;91.70;;;;;;5000579;28;20184;-79
2021/05/21 10:06:04;;;;;;;0.30;0.30;;;21.20;90.90;;;;;;5000970;28;20188;-77
2021/05/21 10:08:30;;;;;;;1.13;0.30;;;21.20;90.90;;;;;;4997403;28;20215;-79
2021/05/21 10:10:56;;;;;;;0.40;0.40;;;20.60;90.00;;;;;;4993686;28;20227;-79
2021/05/21 10:13:22;;;;;;;0.38;0.30;;;20.80;91.00;;;;;;4998132;28;20187;-79
2021/05/21 10:15:49;;;;;;;0.63;0.30;;;20.90;89.50;;;;;;5000164;28;20639;-79
2021/05/21 10:18:15;;;;;;;0.47;0.40;;;21.40;87.30;;;;;;5000734;28;20282;-78
2021/05/21 10:20:46;;;;;;;0.40;0.38;;;21.30;89.10;;;;;;4997763;28;20188;-77
2021/05/21 10:23:22;;;;;;;0.30;0.30;;;21.50;88.60;;;;;;5001665;28;20357;-79
2021/05/21 10:25:51;;;;;;;0.98;0.55;;;21.30;84.20;;;;;;4999996;28;20202;-79
2021/05/21 10:28:18;;;;;;;0.45;0.30;;;21.00;86.60;;;;;;5002802;28;20207;-79
2021/05/21 10:30:45;;;;;;;1.08;0.57;;;20.90;87.90;;;;;;5000503;28;20267;-78
2021/05/21 10:33:16;;;;;;;0.32;0.30;;;20.70;83.90;;;;;;5001912;28;20230;-79
2021/05/21 10:35:42;;;;;;;0.20;0.20;;;20.60;84.70;;;;;;5000210;28;20183;-77
2021/05/21 10:38:24;;;;;;;0.30;0.30;;;20.50;87.00;;;;;;5006074;28;20207;-77
2021/05/21 10:41:16;;;;;;;0.25;0.20;;;20.50;86.50;;;;;;4995098;28;20185;-79
2021/05/21 10:43:53;;;;;;;0.50;0.50;;;20.60;87.20;;;;;;4997936;28;20184;-79
2021/05/21 10:46:22;;;;;;;0.73;0.60;;;20.70;84.80;;;;;;4998288;28;20195;-77
2021/05/21 10:48:59;;;;;;;0.57;0.35;;;20.50;83.80;;;;;;4997362;28;20212;-77
2021/05/21 10:51:46;;;;;;;0.32;0.30;;;20.20;86.80;;;;;;5002574;28;20183;-78
2021/05/21 10:54:23;;;;;;;0.77;0.30;;;20.00;85.40;;;;;;5001103;28;20196;-79
2021/05/21 10:56:49;;;;;;;0.43;0.40;;;20.10;84.80;;;;;;4998567;28;20187;-79
2021/05/21 10:59:15;;;;;;;0.43;0.43;;;20.00;88.30;;;;;;5002960;28;20279;-78
2021/05/21 11:01:45;;;;;;;1.85;0.47;;;19.80;86.80;;;;;;4995284;28;20184;-78
2021/05/21 11:04:13;;;;;;;0.30;0.30;;;19.70;85.00;;;;;;4997344;28;20370;-78
2021/05/21 11:06:46;;;;;;;0.20;0.20;;;20.00;87.30;;;;;;4995952;28;20207;-79
2021/05/21 11:09:14;;;;;;;0.47;0.30;;;20.50;84.80;;;;;;5004803;28;20267;-79
2021/05/21 11:11:45;;;;;;;0.40;0.40;;;20.90;85.90;;;;;;4996104;28;20233;-78
2021/05/21 11:14:29;;;;;;;0.30;0.30;;;21.00;82.80;;;;;;5001387;28;20710;-81
2021/05/21 11:16:57;;;;;;;4.15;0.65;;;21.60;81.30;;;;;;5000895;28;20225;-81
2021/05/21 11:19:25;;;;;;;0.25;0.25;;;21.40;80.30;;;;;;4996703;28;20184;-81
2021/05/21 11:22:28;;;;;;;1.67;0.52;;;21.30;79.90;;;;;;4992078;28;20263;-81
2021/05/21 11:25:01;;;;;;;0.57;0.43;;;21.60;81.70;;;;;;4992752;28;20633;-79
2021/05/21 11:27:32;;;;;;;0.20;0.20;;;21.80;79.70;;;;;;4992855;28;20215;-78
2021/05/21 11:29:59;;;;;;;0.40;0.30;;;21.70;79.30;;;;;;4994494;28;20195;-80
2021/05/21 11:32:26;;;;;;;0.50;0.30;;;21.20;79.00;;;;;;4990094;28;20580;-79
2021/05/21 11:34:53;;;;;;;1.17;0.30;;;20.90;81.80;;;;;;4996224;28;20179;-79
2021/05/21 11:37:25;;;;;;;2.22;0.40;;;20.70;82.20;;;;;;4997560;28;20864;-79
2021/05/21 11:39:52;;;;;;;1.02;0.60;;;20.40;85.00;;;;;;4995888;28;20180;-78
2021/05/21 11:42:20;;;;;;;1.67;0.40;;;20.80;87.20;;;;;;4995784;28;20353;-79
2021/05/21 11:44:48;;;;;;;0.45;0.20;;;21.20;85.70;;;;;;4991158;28;20441;-77
2021/05/21 11:47:31;;;;;;;0.75;0.68;;;21.60;88.30;;;;;;4994182;28;20339;-79
2021/05/21 11:49:59;;;;;;;0.30;0.30;;;21.70;87.30;;;;;;4996997;28;20164;-78
2021/05/21 11:52:25;;;;;;;1.17;0.50;;;22.20;86.20;;;;;;5002120;28;20239;-77
2021/05/21 11:54:51;;;;;;;0.98;0.50;;;22.10;84.90;;;;;;5001295;28;20179;-79
2021/05/21 11:57:19;;;;;;;1.25;0.25;;;21.70;85.20;;;;;;5000231;28;20208;-78
2021/05/21 11:59:46;;;;;;;0.25;0.25;;;21.60;83.70;;;;;;4998106;28;20184;-79
2021/05/21 12:02:14;;;;;;;0.25;0.20;;;21.70;86.80;;;;;;5001409;28;20179;-79
2021/05/21 12:04:41;;;;;;;0.35;0.30;;;22.10;85.00;;;;;;4999524;28;20219;-81
2021/05/21 12:07:25;;;;;;;0.30;0.30;;;22.20;84.00;;;;;;4999165;28;20268;-81
2021/05/21 12:10:05;;;;;;;0.40;0.40;;;22.40;84.10;;;;;;4999447;28;20191;-81
2021/05/21 12:12:33;;;;;;;0.65;0.30;;;22.30;85.40;;;;;;4998698;28;20548;-80
2021/05/21 12:15:13;;;;;;;1.55;0.35;;;21.80;82.30;;;;;;5001103;28;20187;-79
2021/05/21 12:17:44;;;;;;;1.27;0.30;;;21.40;83.10;;;;;;5013367;28;20230;-81
2021/05/21 12:20:10;;;;;;;0.52;0.52;;;21.40;86.70;;;;;;4998261;28;20179;-78
2021/05/21 12:22:36;;;;;;;0.77;0.30;;;21.90;82.50;;;;;;4998846;28;20195;-80
2021/05/21 12:25:18;;;;;;;0.35;0.30;;;22.20;80.40;;;;;;4995264;28;20594;-81
2021/05/21 12:27:44;;;;;;;0.45;0.28;;;22.90;82.80;;;;;;5000550;28;20539;-80
2021/05/21 12:30:11;;;;;;;1.17;0.47;;;22.50;77.90;;;;;;4993683;28;20225;-81
2021/05/21 12:32:38;;;;;;;1.50;0.50;;;22.40;79.80;;;;;;4997070;28;20853;-79
2021/05/21 12:35:10;;;;;;;0.88;0.38;;;22.10;76.50;;;;;;5000351;28;20627;-81
2021/05/21 12:37:47;;;;;;;3.15;1.25;;;22.00;76.60;;;;;;4995144;28;20582;-81
2021/05/21 12:40:15;;;;;;;0.47;0.47;;;21.40;75.20;;;;;;4995576;28;20180;-79
2021/05/21 12:42:50;;;;;;;0.40;0.30;;;20.90;77.70;;;;;;5002676;28;20183;-79
2021/05/21 12:45:15;;;;;;;2.58;0.52;;;20.90;78.10;;;;;;4996298;28;20188;-80
2021/05/21 12:47:46;;;;;;;0.52;0.30;;;21.30;77.80;;;;;;4999853;28;20879;-83
2021/05/21 12:50:13;;;;;;;0.30;0.30;;;21.30;76.90;;;;;;5005015;28;20192;-81
2021/05/21 12:52:56;;;;;;;1.00;0.47;;;21.40;76.80;;;;;;4999109;28;20180;-82